KELM/ELM METAR and TAF weather

Enter ICAO airport designator
Station Type Date Time Source
KELM METAR 2018/01/22 19:55 UTC NOAA

KELM 221955Z AUTO 03004KT 3SM BR FEW011 BKN065 OVC100 06/05 A2996 RMK AO2 T00610050 $


Station Type Date Time Source
KELM Decoded METAR 2018/01/22 19:55 UTC NOAA

ELMIRA COUNTY AIRPORT, NY, United States (KELM) 42-10N 76-54W 302M
Jan 22, 2018 - 02:55 PM EST / 2018.01.22 1955 UTC
Wind: from the NNE (030 degrees) at 5 MPH (4 KT):0
Visibility: 3 mile(s):0
Sky conditions: overcast
Weather: mist
Temperature: 43.0 F (6.1 C)
Dew Point: 41.0 F (5.0 C)
Relative Humidity: 92%
Pressure (altimeter): 29.96 in. Hg (1014 hPa)
ob: KELM 221955Z AUTO 03004KT 3SM BR FEW011 BKN065 OVC100 06/05 A2996 RMK AO2 T00610050
cycle: 20

Station Type Date Time Source
KELM TAF 2018/01/22 20:16 UTC NOAA

TAF
AMD KELM 222014Z 2220/2318 VRB03KT 3SM BR OVC015
TEMPO 2221/2224 2SM BR OVC009
FM230000 17008KT 3SM BR OVC025
FM230800 22007KT 4SM -RA BR OVC015


Example: see airport list